Time;durP1;ratioP1;P1;durP2;ratioP2;P2;SDS_P1;SDS_P2;PMS_P1;PMS_P2;Temp;Humidity;BMP_temperature;BMP_pressure;BME280_temperature;BME280_humidity;BME280_pressure;Samples;Min_cycle;Max_cycle;Signal;HPM_P1;HPM_P2
2022/06/20 00:02:05;;;;;;;7.45;3.42;;;;;;;;;;5091995;28;20169;-51
2022/06/20 00:04:32;;;;;;;4.07;2.65;;;;;;;;;;5091973;28;20048;-50
2022/06/20 00:07:00;;;;;;;3.85;2.58;;;;;;;;;;5092084;28;20055;-52
2022/06/20 00:09:27;;;;;;;4.00;2.80;;;;;;;;;;5091889;28;20812;-54
2022/06/20 00:11:54;;;;;;;5.00;2.58;;;;;;;;;;5091962;28;20032;-52
2022/06/20 00:14:22;;;;;;;6.25;2.78;;;;;;;;;;5091680;28;20055;-50
2022/06/20 00:16:49;;;;;;;4.65;3.00;;;;;;;;;;5091989;28;20055;-52
2022/06/20 00:19:17;;;;;;;5.20;2.85;;;;;;;;;;5091661;28;20066;-52
2022/06/20 00:21:44;;;;;;;5.47;2.60;;;;;;;;;;5091495;28;20036;-49
2022/06/20 00:24:11;;;;;;;4.70;2.63;;;;;;;;;;5091720;28;20130;-52
2022/06/20 00:26:40;;;;;;;3.15;2.40;;;;;;;;;;5090204;28;20047;-51
2022/06/20 00:29:10;;;;;;;4.55;2.67;;;;;;;;;;5091886;28;20454;-51
2022/06/20 00:31:37;;;;;;;3.63;2.42;;;;;;;;;;5092038;28;20067;-52
2022/06/20 00:34:05;;;;;;;4.05;2.80;;;;;;;;;;5091532;28;20051;-49
2022/06/20 00:36:32;;;;;;;5.15;2.25;;;;;;;;;;5091616;28;20548;-53
2022/06/20 00:39:00;;;;;;;5.50;2.55;;;;;;;;;;5091357;28;20059;-52
2022/06/20 00:41:31;;;;;;;5.03;2.65;;;;;;;;;;5091124;28;20129;-52
2022/06/20 00:44:01;;;;;;;4.65;2.60;;;;;;;;;;5091274;28;20916;-52
2022/06/20 00:46:37;;;;;;;4.38;2.55;;;;;;;;;;5091056;28;20068;-52
2022/06/20 00:49:29;;;;;;;5.55;2.90;;;;;;;;;;5091506;28;20040;-51
2022/06/20 00:52:00;;;;;;;8.30;2.70;;;;;;;;;;5090487;28;20094;-51
2022/06/20 00:54:37;;;;;;;4.20;2.83;;;;;;;;;;5091047;28;20097;-53
2022/06/20 00:57:15;;;;;;;4.32;2.70;;;;;;;;;;5091515;28;20441;-48
2022/06/20 00:59:51;;;;;;;9.27;3.47;;;;;;;;;;5091134;28;20036;-51
2022/06/20 01:02:26;;;;;;;4.60;2.70;;;;;;;;;;5090937;28;20036;-53
2022/06/20 01:05:05;;;;;;;4.47;2.50;;;;;;;;;;5090930;28;20398;-52
2022/06/20 01:07:48;;;;;;;3.67;2.58;;;;;;;;;;5090750;28;20051;-50
2022/06/20 01:10:19;;;;;;;5.00;2.90;;;;;;;;;;5090905;28;20052;-52
2022/06/20 01:13:01;;;;;;;3.88;2.65;;;;;;;;;;5089307;28;20385;-53
2022/06/20 01:15:37;;;;;;;4.18;2.70;;;;;;;;;;5090600;28;20056;-54
2022/06/20 01:18:16;;;;;;;6.22;3.00;;;;;;;;;;5090706;28;20097;-51
2022/06/20 01:20:45;;;;;;;5.53;3.20;;;;;;;;;;5089006;28;20519;-53
2022/06/20 01:23:19;;;;;;;8.63;2.72;;;;;;;;;;5090393;28;20673;-53
2022/06/20 01:26:08;;;;;;;5.28;2.88;;;;;;;;;;5090292;28;20048;-52
2022/06/20 01:28:39;;;;;;;4.40;2.65;;;;;;;;;;5090727;28;20491;-51
2022/06/20 01:31:09;;;;;;;6.45;2.40;;;;;;;;;;5090731;28;20445;-52
2022/06/20 01:33:37;;;;;;;5.07;2.67;;;;;;;;;;5090311;28;20489;-53
2022/06/20 01:38:51;;;;;;;3.75;2.53;;;;;;;;;;5090178;28;20093;-54
2022/06/20 01:44:05;;;;;;;3.63;2.25;;;;;;;;;;5089977;28;20048;-51
2022/06/20 01:46:34;;;;;;;4.18;2.75;;;;;;;;;;5090142;28;20040;-51
2022/06/20 01:49:10;;;;;;;4.13;2.40;;;;;;;;;;5090549;28;20033;-50
2022/06/20 01:51:49;;;;;;;7.20;2.80;;;;;;;;;;5090255;28;20040;-53
2022/06/20 01:54:17;;;;;;;8.32;2.47;;;;;;;;;;5090147;28;20047;-52
2022/06/20 01:56:47;;;;;;;5.93;2.78;;;;;;;;;;5089997;28;20097;-51
2022/06/20 01:59:42;;;;;;;6.22;2.75;;;;;;;;;;5089992;28;20134;-53
2022/06/20 02:02:09;;;;;;;8.73;3.22;;;;;;;;;;5090442;28;20051;-52
2022/06/20 02:04:38;;;;;;;6.78;2.67;;;;;;;;;;5088493;28;20047;-50
2022/06/20 02:07:10;;;;;;;4.65;2.47;;;;;;;;;;5088852;28;20052;-53
2022/06/20 02:09:39;;;;;;;3.50;2.33;;;;;;;;;;5090291;28;20086;-54
2022/06/20 02:12:09;;;;;;;4.22;2.20;;;;;;;;;;5090246;28;20460;-50
2022/06/20 02:14:48;;;;;;;4.22;2.45;;;;;;;;;;5090334;28;20068;-54
2022/06/20 02:17:20;;;;;;;6.65;2.60;;;;;;;;;;5089795;28;20040;-49
2022/06/20 02:19:52;;;;;;;3.97;2.10;;;;;;;;;;5088741;28;20036;-51
2022/06/20 02:22:22;;;;;;;6.07;2.50;;;;;;;;;;5090049;28;20032;-52
2022/06/20 02:24:58;;;;;;;5.25;2.55;;;;;;;;;;5089857;28;20081;-51
2022/06/20 02:27:38;;;;;;;4.35;2.65;;;;;;;;;;5089772;28;20751;-53
2022/06/20 02:30:08;;;;;;;6.38;2.55;;;;;;;;;;5089685;28;20043;-54
2022/06/20 02:32:40;;;;;;;3.75;2.22;;;;;;;;;;5089697;28;20054;-52
2022/06/20 02:35:12;;;;;;;3.92;2.15;;;;;;;;;;5089898;28;20048;-52
2022/06/20 02:37:40;;;;;;;3.53;2.40;;;;;;;;;;5089866;28;20036;-53
2022/06/20 02:40:12;;;;;;;4.72;2.25;;;;;;;;;;5089930;28;20311;-54
2022/06/20 02:42:51;;;;;;;3.63;1.83;;;;;;;;;;5089722;28;20047;-52
2022/06/20 02:45:20;;;;;;;3.67;2.30;;;;;;;;;;5089512;28;20110;-54
2022/06/20 02:47:52;;;;;;;3.13;1.77;;;;;;;;;;5089587;28;20040;-49
2022/06/20 02:50:23;;;;;;;6.13;2.00;;;;;;;;;;5089682;28;20082;-55
2022/06/20 02:53:12;;;;;;;4.53;2.20;;;;;;;;;;5089617;28;20410;-48
2022/06/20 02:55:40;;;;;;;2.75;1.63;;;;;;;;;;5089811;28;20040;-53
2022/06/20 02:58:13;;;;;;;3.78;2.15;;;;;;;;;;5090221;28;20454;-54
2022/06/20 03:00:45;;;;;;;;;;;;;;;;;;5089959;28;20081;-47
2022/06/20 03:03:26;;;;;;;5.10;1.80;;;;;;;;;;5089277;28;20371;-51
2022/06/20 03:05:54;;;;;;;3.42;1.80;;;;;;;;;;5089363;28;20072;-53
2022/06/20 03:08:21;;;;;;;2.97;2.03;;;;;;;;;;5089651;28;20111;-52
2022/06/20 03:10:52;;;;;;;5.10;1.83;;;;;;;;;;5088063;28;20047;-54
2022/06/20 03:13:21;;;;;;;3.72;1.90;;;;;;;;;;5089099;28;20041;-47
2022/06/20 03:15:51;;;;;;;3.75;1.95;;;;;;;;;;5091312;28;20093;-55
2022/06/20 03:18:22;;;;;;;3.80;2.03;;;;;;;;;;5092980;28;20044;-53
2022/06/20 03:20:50;;;;;;;3.10;1.83;;;;;;;;;;5091792;28;20401;-54
2022/06/20 03:23:20;;;;;;;2.70;1.70;;;;;;;;;;5092954;28;20032;-53
2022/06/20 03:25:48;;;;;;;2.95;1.60;;;;;;;;;;5092064;28;20075;-54
2022/06/20 03:28:21;;;;;;;4.35;1.80;;;;;;;;;;5092582;28;20039;-55
2022/06/20 03:31:05;;;;;;;5.53;2.03;;;;;;;;;;5092766;28;20040;-54
2022/06/20 03:33:33;;;;;;;3.10;1.70;;;;;;;;;;5092652;28;20044;-54
2022/06/20 03:36:08;;;;;;;2.70;1.75;;;;;;;;;;5092772;28;20039;-53
2022/06/20 03:38:36;;;;;;;2.95;1.98;;;;;;;;;;5092390;28;20040;-54
2022/06/20 03:41:05;;;;;;;3.80;2.50;;;;;;;;;;5091158;28;20036;-55
2022/06/20 03:43:35;;;;;;;3.35;2.45;;;;;;;;;;5092673;28;20044;-55
2022/06/20 03:46:10;;;;;;;5.40;2.60;;;;;;;;;;5092320;28;20047;-52
2022/06/20 03:49:00;;;;;;;3.50;2.97;;;;;;;;;;5092727;28;20120;-54
2022/06/20 03:51:38;;;;;;;3.95;2.85;;;;;;;;;;5091935;28;20510;-50
2022/06/20 03:54:24;;;;;;;5.80;3.47;;;;;;;;;;5092238;28;20044;-56
2022/06/20 03:57:02;;;;;;;3.88;2.90;;;;;;;;;;5092158;28;20044;-55
2022/06/20 03:59:41;;;;;;;5.85;3.45;;;;;;;;;;5091626;28;20802;-54
2022/06/20 04:02:21;;;;;;;4.15;3.40;;;;;;;;;;5092185;28;20078;-55
2022/06/20 04:05:35;;;;;;;5.07;3.50;;;;;;;;;;5092402;28;20040;-55
2022/06/20 04:08:03;;;;;;;5.10;3.25;;;;;;;;;;5090958;28;20061;-55
2022/06/20 04:11:01;;;;;;;4.75;3.78;;;;;;;;;;5091782;28;20113;-50
2022/06/20 04:13:33;;;;;;;4.60;3.58;;;;;;;;;;5091677;28;20055;-53
2022/06/20 04:16:37;;;;;;;4.40;3.58;;;;;;;;;;5091807;28;20044;-53
2022/06/20 04:19:27;;;;;;;8.43;3.40;;;;;;;;;;5091699;28;20142;-55
2022/06/20 04:21:58;;;;;;;6.65;4.70;;;;;;;;;;5091681;28;20117;-55
2022/06/20 04:24:35;;;;;;;5.63;4.95;;;;;;;;;;5091778;28;20032;-52
2022/06/20 04:27:20;;;;;;;6.40;5.20;;;;;;;;;;5090561;28;20054;-53
2022/06/20 04:29:55;;;;;;;6.90;5.72;;;;;;;;;;5091455;28;20430;-54
2022/06/20 04:32:50;;;;;;;7.53;5.45;;;;;;;;;;5091755;28;20040;-53
2022/06/20 04:35:33;;;;;;;7.18;6.28;;;;;;;;;;5091767;28;20541;-49
2022/06/20 04:38:23;;;;;;;6.82;5.47;;;;;;;;;;5091230;28;20127;-52
2022/06/20 04:41:05;;;;;;;6.15;5.30;;;;;;;;;;5091446;28;20059;-49
2022/06/20 04:43:57;;;;;;;6.45;5.38;;;;;;;;;;5091266;28;20070;-54
2022/06/20 04:46:32;;;;;;;6.15;5.55;;;;;;;;;;5091290;28;20513;-52
2022/06/20 04:49:02;;;;;;;7.70;5.70;;;;;;;;;;5091346;28;20507;-55
2022/06/20 04:51:35;;;;;;;5.75;5.03;;;;;;;;;;5091125;28;20090;-55
2022/06/20 04:54:04;;;;;;;6.55;5.68;;;;;;;;;;5091033;28;20538;-55
2022/06/20 04:56:32;;;;;;;8.35;6.00;;;;;;;;;;5091277;28;20059;-55
2022/06/20 04:59:06;;;;;;;7.68;6.88;;;;;;;;;;5090976;28;20044;-53
2022/06/20 05:01:36;;;;;;;7.82;7.03;;;;;;;;;;5090914;28;20044;-55
2022/06/20 05:04:22;;;;;;;7.72;7.03;;;;;;;;;;5090661;28;20048;-54
2022/06/20 05:06:51;;;;;;;7.80;6.85;;;;;;;;;;5090451;28;20578;-52
2022/06/20 05:09:27;;;;;;;8.90;8.00;;;;;;;;;;5090910;28;20474;-54
2022/06/20 05:12:15;;;;;;;7.22;6.53;;;;;;;;;;5090616;28;20499;-52
2022/06/20 05:15:11;;;;;;;8.68;7.60;;;;;;;;;;5090952;28;20449;-51
2022/06/20 05:17:40;;;;;;;8.02;7.22;;;;;;;;;;5090761;28;20450;-53
2022/06/20 05:20:21;;;;;;;9.43;6.97;;;;;;;;;;5090935;28;20798;-54
2022/06/20 05:22:57;;;;;;;8.55;7.65;;;;;;;;;;5090473;28;20044;-55
2022/06/20 05:25:25;;;;;;;8.82;7.75;;;;;;;;;;5090763;28;20071;-55
2022/06/20 05:27:57;;;;;;;10.40;7.65;;;;;;;;;;5090359;28;20047;-51
2022/06/20 05:30:30;;;;;;;8.25;7.38;;;;;;;;;;5090457;28;20047;-54
2022/06/20 05:33:05;;;;;;;9.20;7.68;;;;;;;;;;5090115;28;20044;-53
2022/06/20 05:35:42;;;;;;;8.75;7.95;;;;;;;;;;5090264;28;20517;-53
2022/06/20 05:38:26;;;;;;;200.32;120.85;;;;;;;;;;5090202;28;20032;-52
2022/06/20 05:40:56;;;;;;;26.02;17.50;;;;;;;;;;5090476;28;20403;-55
2022/06/20 05:43:29;;;;;;;10.73;8.88;;;;;;;;;;5090191;28;20062;-51
2022/06/20 05:46:06;;;;;;;9.20;8.30;;;;;;;;;;5090452;28;20392;-50
2022/06/20 05:48:44;;;;;;;9.27;8.38;;;;;;;;;;5090293;28;20399;-54
2022/06/20 05:51:14;;;;;;;11.15;8.35;;;;;;;;;;5089998;28;20097;-48
2022/06/20 05:53:45;;;;;;;9.45;8.45;;;;;;;;;;5089115;28;20495;-48
2022/06/20 05:56:22;;;;;;;12.07;10.48;;;;;;;;;;5089893;28;20044;-53
2022/06/20 05:58:51;;;;;;;10.13;9.13;;;;;;;;;;5089867;28;20036;-51
2022/06/20 06:01:30;;;;;;;10.13;9.13;;;;;;;;;;5090057;28;20051;-54
2022/06/20 06:04:26;;;;;;;9.55;8.55;;;;;;;;;;5089993;28;20044;-53
2022/06/20 06:06:57;;;;;;;10.45;9.35;;;;;;;;;;5089912;28;20051;-53
2022/06/20 06:09:51;;;;;;;9.82;8.60;;;;;;;;;;5089897;28;20433;-51
2022/06/20 06:12:34;;;;;;;9.52;8.13;;;;;;;;;;5089566;28;20044;-54
2022/06/20 06:15:26;;;;;;;10.18;9.20;;;;;;;;;;5090142;28;20051;-53
2022/06/20 06:18:00;;;;;;;9.90;8.90;;;;;;;;;;5089848;28;20044;-54
2022/06/20 06:20:31;;;;;;;12.82;11.18;;;;;;;;;;5090023;28;20036;-53
2022/06/20 06:23:05;;;;;;;11.50;9.65;;;;;;;;;;5089827;28;20105;-52
2022/06/20 06:25:39;;;;;;;10.88;9.68;;;;;;;;;;5089725;28;20033;-49
2022/06/20 06:28:16;;;;;;;10.38;9.30;;;;;;;;;;5089697;28;20115;-52
2022/06/20 06:30:52;;;;;;;10.68;9.57;;;;;;;;;;5089803;28;20032;-52
2022/06/20 06:33:26;;;;;;;11.10;9.50;;;;;;;;;;5089475;28;20098;-54
2022/06/20 06:36:11;;;;;;;11.45;8.75;;;;;;;;;;5089618;28;20052;-54
2022/06/20 06:38:41;;;;;;;7.75;6.95;;;;;;;;;;5089119;28;20438;-44
2022/06/20 06:41:20;;;;;;;8.48;7.57;;;;;;;;;;5090031;28;20086;-53
2022/06/20 06:43:51;;;;;;;17.65;12.63;;;;;;;;;;5089308;28;20557;-52
2022/06/20 06:46:25;;;;;;;10.82;8.73;;;;;;;;;;5089498;28;20044;-45
2022/06/20 06:49:17;;;;;;;5.70;4.90;;;;;;;;;;5089399;28;20051;-48
2022/06/20 06:51:53;;;;;;;5.07;4.28;;;;;;;;;;5062413;28;20060;-43
2022/06/20 06:54:32;;;;;;;4.45;3.50;;;;;;;;;;5073108;28;20053;-51
2022/06/20 06:57:05;;;;;;;3.55;2.60;;;;;;;;;;5073057;28;20102;-48
2022/06/20 06:59:40;;;;;;;5.45;2.35;;;;;;;;;;5073111;28;20053;-51
2022/06/20 07:02:14;;;;;;;2.80;1.80;;;;;;;;;;5073185;28;20043;-48
2022/06/20 07:05:08;;;;;;;2.75;1.52;;;;;;;;;;5069124;28;20057;-42
2022/06/20 07:07:43;;;;;;;2.33;1.65;;;;;;;;;;5072823;28;20044;-47
2022/06/20 07:10:25;;;;;;;3.47;2.00;;;;;;;;;;5072791;28;20089;-42
2022/06/20 07:12:58;;;;;;;74.53;38.97;;;;;;;;;;5072656;28;20057;-51
2022/06/20 07:15:28;;;;;;;66.35;37.88;;;;;;;;;;5072677;28;20112;-52
2022/06/20 07:18:00;;;;;;;4.10;2.78;;;;;;;;;;5070658;28;20043;-43
2022/06/20 07:20:39;;;;;;;4.75;3.33;;;;;;;;;;5072134;28;20048;-49
2022/06/20 07:23:14;;;;;;;5.55;4.32;;;;;;;;;;5072538;28;20040;-46
2022/06/20 07:25:49;;;;;;;4.82;4.13;;;;;;;;;;5072353;28;20036;-43
2022/06/20 07:28:51;;;;;;;6.25;4.13;;;;;;;;;;5072556;28;20119;-47
2022/06/20 07:31:34;;;;;;;4.43;3.92;;;;;;;;;;5065745;28;20102;-49
2022/06/20 07:34:17;;;;;;;6.00;5.30;;;;;;;;;;5072401;28;20044;-53
2022/06/20 07:36:49;;;;;;;5.72;5.13;;;;;;;;;;5072558;28;20576;-46
2022/06/20 07:39:24;;;;;;;5.28;4.43;;;;;;;;;;5072300;28;20076;-45
2022/06/20 07:42:02;;;;;;;16.00;10.43;;;;;;;;;;5071829;28;20124;-40
2022/06/20 07:44:44;;;;;;;8.00;6.40;;;;;;;;;;5072169;28;20043;-43
2022/06/20 07:47:20;;;;;;;8.07;7.27;;;;;;;;;;5072327;28;20044;-42
2022/06/20 07:49:55;;;;;;;9.05;7.55;;;;;;;;;;5071810;28;20296;-45
2022/06/20 07:52:33;;;;;;;7.88;7.07;;;;;;;;;;5071983;28;20047;-41
2022/06/20 07:55:10;;;;;;;7.40;6.25;;;;;;;;;;5070568;28;20534;-41
2022/06/20 07:57:44;;;;;;;6.07;5.13;;;;;;;;;;5072183;28;20040;-42
2022/06/20 08:00:35;;;;;;;6.50;5.68;;;;;;;;;;5072239;28;20067;-50
2022/06/20 08:03:10;;;;;;;6.35;5.43;;;;;;;;;;5071837;28;20040;-44
2022/06/20 08:05:45;;;;;;;4.82;4.28;;;;;;;;;;5072061;28;20047;-44
2022/06/20 08:08:25;;;;;;;4.75;4.10;;;;;;;;;;5071583;28;20055;-43
2022/06/20 08:11:03;;;;;;;4.22;3.40;;;;;;;;;;5071546;28;20071;-45
2022/06/20 08:13:48;;;;;;;5.18;3.58;;;;;;;;;;5070961;28;20067;-54
2022/06/20 08:16:27;;;;;;;4.38;3.50;;;;;;;;;;5071540;28;20882;-48
2022/06/20 08:18:55;;;;;;;10.70;7.03;;;;;;;;;;5071714;28;20389;-44
2022/06/20 08:21:28;;;;;;;5.47;4.18;;;;;;;;;;5071443;28;20044;-45
2022/06/20 08:24:04;;;;;;;4.82;3.92;;;;;;;;;;5070188;28;20048;-42
2022/06/20 08:26:39;;;;;;;4.47;3.15;;;;;;;;;;5071467;28;20063;-41
2022/06/20 08:29:13;;;;;;;4.22;3.05;;;;;;;;;;5071467;28;20499;-51
2022/06/20 08:31:45;;;;;;;3.65;2.47;;;;;;;;;;5071489;28;20499;-50
2022/06/20 08:34:22;;;;;;;3.15;2.40;;;;;;;;;;5071530;28;20033;-51
2022/06/20 08:36:56;;;;;;;2.78;2.10;;;;;;;;;;5070959;28;20083;-55
2022/06/20 08:39:32;;;;;;;3.30;2.03;;;;;;;;;;5071131;28;20032;-49
2022/06/20 08:42:16;;;;;;;3.22;1.58;;;;;;;;;;5071021;28;20043;-55
2022/06/20 08:44:56;;;;;;;3.05;1.95;;;;;;;;;;5070704;28;20043;-41
2022/06/20 08:48:08;;;;;;;2.90;1.50;;;;;;;;;;5071105;28;20048;-49
2022/06/20 08:50:57;;;;;;;4.50;1.40;;;;;;;;;;5070841;28;20492;-55
2022/06/20 08:54:02;;;;;;;2.22;1.42;;;;;;;;;;5070795;28;20044;-50
2022/06/20 08:56:46;;;;;;;4.00;1.40;;;;;;;;;;5070707;28;20048;-48
2022/06/20 08:59:24;;;;;;;3.60;1.77;;;;;;;;;;5070912;28;20048;-42
2022/06/20 09:02:14;;;;;;;40.83;24.35;;;;;;;;;;5070558;28;20076;-49
2022/06/20 09:05:03;;;;;;;3.97;2.42;;;;;;;;;;5070828;28;20066;-48
2022/06/20 09:07:47;;;;;;;2.38;1.23;;;;;;;;;;5070783;28;20488;-53
2022/06/20 09:10:43;;;;;;;5.60;1.40;;;;;;;;;;5068907;28;20446;-41
2022/06/20 09:13:31;;;;;;;2.45;1.20;;;;;;;;;;5070175;28;20131;-41
2022/06/20 09:16:32;;;;;;;2.00;1.05;;;;;;;;;;5070332;28;20049;-42
2022/06/20 09:19:00;;;;;;;1.80;1.30;;;;;;;;;;5070673;28;20119;-40
2022/06/20 09:21:50;;;;;;;1.98;1.50;;;;;;;;;;5070831;28;20098;-43
2022/06/20 09:24:41;;;;;;;2.40;1.50;;;;;;;;;;5067474;28;20082;-46
2022/06/20 09:27:15;;;;;;;1.83;1.20;;;;;;;;;;5048442;28;20049;-53
2022/06/20 09:30:08;;;;;;;5.47;1.10;;;;;;;;;;5070300;28;20114;-43
2022/06/20 09:33:03;;;;;;;3.15;1.42;;;;;;;;;;5069794;28;20123;-40
2022/06/20 09:35:49;;;;;;;3.13;1.52;;;;;;;;;;5070108;28;20446;-52
2022/06/20 09:38:34;;;;;;;2.42;1.38;;;;;;;;;;5070290;28;20041;-46
2022/06/20 09:41:12;;;;;;;9.30;5.00;;;;;;;;;;5069973;28;20076;-46
2022/06/20 09:44:11;;;;;;;2.30;1.42;;;;;;;;;;5070339;28;20115;-51
2022/06/20 09:46:50;;;;;;;2.65;1.73;;;;;;;;;;5069283;28;20060;-49
2022/06/20 09:49:24;;;;;;;2.92;2.05;;;;;;;;;;5070240;28;20044;-49
2022/06/20 09:52:27;;;;;;;2.58;1.80;;;;;;;;;;5070348;28;20050;-45
2022/06/20 09:54:58;;;;;;;2.13;1.60;;;;;;;;;;5070348;28;20037;-49
2022/06/20 09:57:40;;;;;;;2.67;1.83;;;;;;;;;;5070166;28;20496;-55
2022/06/20 10:00:08;;;;;;;2.50;1.65;;;;;;;;;;5070571;28;20511;-45
2022/06/20 10:02:49;;;;;;;12.75;7.78;;;;;;;;;;5070165;28;20048;-50
2022/06/20 10:05:42;;;;;;;5.28;2.42;;;;;;;;;;5070186;28;20036;-54
2022/06/20 10:08:18;;;;;;;2.28;1.73;;;;;;;;;;5069999;28;20495;-54
2022/06/20 10:10:54;;;;;;;3.17;2.20;;;;;;;;;;5069969;28;20044;-42
2022/06/20 10:13:48;;;;;;;3.90;2.38;;;;;;;;;;5069965;28;20045;-51
2022/06/20 10:16:18;;;;;;;4.03;2.72;;;;;;;;;;5070197;28;20044;-53
2022/06/20 10:19:37;;;;;;;4.13;2.60;;;;;;;;;;5069628;28;20583;-46
2022/06/20 10:22:23;;;;;;;3.47;2.50;;;;;;;;;;5047493;28;20060;-53
2022/06/20 10:25:07;;;;;;;3.22;2.47;;;;;;;;;;5047905;28;20535;-52
2022/06/20 10:28:39;;;;;;;2.88;2.30;;;;;;;;;;5072795;28;20056;-50
2022/06/20 10:31:26;;;;;;;3.67;2.50;;;;;;;;;;5068194;28;20040;-53
2022/06/20 10:34:06;;;;;;;4.35;2.40;;;;;;;;;;5073494;28;20051;-56
2022/06/20 10:36:46;;;;;;;3.15;2.13;;;;;;;;;;5073899;28;20135;-54
2022/06/20 10:39:41;;;;;;;2.70;2.00;;;;;;;;;;5073759;28;20537;-55
2022/06/20 10:42:23;;;;;;;3.47;2.30;;;;;;;;;;5073843;28;20040;-54
2022/06/20 10:45:28;;;;;;;6.95;2.63;;;;;;;;;;5072369;28;20036;-41
2022/06/20 10:48:01;;;;;;;3.10;2.17;;;;;;;;;;5073378;28;20123;-41
2022/06/20 10:50:42;;;;;;;5.03;2.30;;;;;;;;;;5073448;28;20572;-50
2022/06/20 10:53:18;;;;;;;5.93;3.83;;;;;;;;;;5073688;28;20504;-54
2022/06/20 10:55:56;;;;;;;2.97;2.15;;;;;;;;;;5073298;28;20086;-39
2022/06/20 10:58:41;;;;;;;3.75;2.30;;;;;;;;;;5073425;28;20106;-52
2022/06/20 11:01:33;;;;;;;3.42;2.53;;;;;;;;;;5073469;28;20075;-52
2022/06/20 11:04:08;;;;;;;3.67;2.50;;;;;;;;;;5073240;28;20059;-46
2022/06/20 11:06:57;;;;;;;2.97;2.28;;;;;;;;;;5073204;28;20090;-42
2022/06/20 11:09:48;;;;;;;4.13;2.38;;;;;;;;;;5073314;28;20415;-45
2022/06/20 11:12:37;;;;;;;4.97;2.80;;;;;;;;;;5073212;28;20052;-54
2022/06/20 11:15:19;;;;;;;3.67;2.72;;;;;;;;;;5072935;28;20051;-45
2022/06/20 11:18:24;;;;;;;4.50;2.85;;;;;;;;;;5073079;28;20118;-44
2022/06/20 11:21:19;;;;;;;4.60;2.78;;;;;;;;;;5073048;28;20040;-46
2022/06/20 11:23:50;;;;;;;4.53;2.45;;;;;;;;;;5072892;28;20059;-45
2022/06/20 11:26:49;;;;;;;5.95;3.00;;;;;;;;;;5072826;28;20395;-47
2022/06/20 11:30:07;;;;;;;4.18;3.00;;;;;;;;;;5069940;28;20538;-54
2022/06/20 11:33:08;;;;;;;31.40;20.92;;;;;;;;;;5030151;28;20076;-51
2022/06/20 11:36:07;;;;;;;7.03;4.07;;;;;;;;;;5066556;28;20060;-47
2022/06/20 11:39:07;;;;;;;3.70;2.70;;;;;;;;;;5048088;28;20135;-46
2022/06/20 11:42:10;;;;;;;3.85;2.97;;;;;;;;;;5072040;28;20044;-54
2022/06/20 11:45:00;;;;;;;4.80;3.28;;;;;;;;;;5072442;28;20045;-51
2022/06/20 11:47:52;;;;;;;4.07;3.25;;;;;;;;;;5072498;28;20454;-55
2022/06/20 11:50:48;;;;;;;3.63;2.90;;;;;;;;;;5072319;28;20044;-54
2022/06/20 11:53:27;;;;;;;3.47;2.85;;;;;;;;;;5072494;28;20497;-51
2022/06/20 11:56:04;;;;;;;3.70;2.63;;;;;;;;;;5072195;28;20045;-54
2022/06/20 11:59:10;;;;;;;4.90;2.90;;;;;;;;;;5072420;28;20041;-48
2022/06/20 12:01:46;;;;;;;4.90;2.63;;;;;;;;;;5072125;28;20079;-52
2022/06/20 12:04:22;;;;;;;3.30;2.78;;;;;;;;;;5072522;28;20036;-52
2022/06/20 12:06:52;;;;;;;20.52;11.68;;;;;;;;;;5071812;28;20123;-47
2022/06/20 12:09:39;;;;;;;5.78;3.72;;;;;;;;;;5071902;28;20404;-54
2022/06/20 12:12:09;;;;;;;3.95;2.78;;;;;;;;;;5071634;28;20503;-42
2022/06/20 12:14:55;;;;;;;3.78;2.72;;;;;;;;;;5072111;28;20040;-52
2022/06/20 12:17:47;;;;;;;9.93;3.03;;;;;;;;;;5071967;28;20067;-50
2022/06/20 12:23:37;;;;;;;;;;;;;;;;;;5072407;28;20931;-53
2022/06/20 12:26:10;;;;;;;3.78;2.90;;;;;;;;;;5071578;28;19924;-43
2022/06/20 12:28:41;;;;;;;3.45;2.28;;;;;;;;;;5071468;28;20045;-51
2022/06/20 12:31:08;;;;;;;4.35;2.90;;;;;;;;;;5071745;28;20055;-42
2022/06/20 12:33:39;;;;;;;3.72;2.67;;;;;;;;;;5071577;28;20064;-41
2022/06/20 12:36:35;;;;;;;5.38;2.60;;;;;;;;;;5071335;28;20277;-41
2022/06/20 12:39:30;;;;;;;3.42;2.63;;;;;;;;;;5067447;28;20045;-48
2022/06/20 12:42:21;;;;;;;5.75;2.67;;;;;;;;;;5068911;28;20450;-41
2022/06/20 12:45:11;;;;;;;3.70;3.00;;;;;;;;;;5071193;28;20132;-46
2022/06/20 12:48:00;;;;;;;4.40;3.20;;;;;;;;;;5070382;28;20037;-46
2022/06/20 12:50:38;;;;;;;3.35;2.58;;;;;;;;;;5071240;28;20052;-51
2022/06/20 12:53:25;;;;;;;6.63;2.83;;;;;;;;;;5071263;28;20037;-44
2022/06/20 12:56:18;;;;;;;4.53;3.80;;;;;;;;;;5070976;28;20061;-43
2022/06/20 12:58:58;;;;;;;5.10;3.65;;;;;;;;;;5060965;28;20052;-45
2022/06/20 13:01:28;;;;;;;4.22;2.90;;;;;;;;;;5071034;28;20052;-47
2022/06/20 13:04:19;;;;;;;6.07;3.50;;;;;;;;;;5069583;28;20047;-52
2022/06/20 13:06:52;;;;;;;4.07;3.17;;;;;;;;;;5071241;28;20095;-45
2022/06/20 13:09:38;;;;;;;;;;;;;;;;;;5071310;28;20040;-48
2022/06/20 13:12:24;;;;;;;5.95;3.08;;;;;;;;;;5070426;28;19963;-52
2022/06/20 13:15:24;;;;;;;4.65;2.83;;;;;;;;;;5070739;28;20580;-44
2022/06/20 13:18:03;;;;;;;4.45;3.08;;;;;;;;;;5070815;28;20086;-45
2022/06/20 13:20:46;;;;;;;4.22;3.30;;;;;;;;;;5070649;28;20052;-52
2022/06/20 13:23:14;;;;;;;3.97;3.33;;;;;;;;;;5070681;28;20076;-47
2022/06/20 13:25:49;;;;;;;5.68;2.90;;;;;;;;;;5070631;28;20036;-50
2022/06/20 13:28:44;;;;;;;4.43;3.53;;;;;;;;;;5070439;28;20040;-47
2022/06/20 13:31:26;;;;;;;3.80;3.13;;;;;;;;;;5070665;28;20109;-47
2022/06/20 13:33:53;;;;;;;4.00;2.90;;;;;;;;;;5069494;28;20072;-48
2022/06/20 13:37:19;;;;;;;4.05;2.92;;;;;;;;;;5070537;28;20036;-49
2022/06/20 13:39:57;;;;;;;4.10;3.10;;;;;;;;;;5038473;28;20048;-54
2022/06/20 13:42:36;;;;;;;3.70;2.80;;;;;;;;;;5050561;28;20037;-51
2022/06/20 13:45:18;;;;;;;4.30;3.42;;;;;;;;;;5049171;28;20060;-43
2022/06/20 13:48:11;;;;;;;5.47;3.33;;;;;;;;;;5050217;28;20037;-43
2022/06/20 13:51:00;;;;;;;4.05;3.10;;;;;;;;;;5050175;28;20111;-43
2022/06/20 13:53:40;;;;;;;3.97;3.33;;;;;;;;;;5050142;28;20099;-42
2022/06/20 13:56:22;;;;;;;4.20;2.90;;;;;;;;;;5050459;28;20091;-42
2022/06/20 13:58:53;;;;;;;4.55;3.10;;;;;;;;;;5050099;28;20037;-44
2022/06/20 14:01:30;;;;;;;5.25;3.80;;;;;;;;;;5049956;28;20049;-42
2022/06/20 14:04:00;;;;;;;5.13;3.47;;;;;;;;;;5049975;28;20068;-43
2022/06/20 14:06:47;;;;;;;3.88;2.97;;;;;;;;;;5050149;28;20041;-49
2022/06/20 14:09:43;;;;;;;4.28;3.15;;;;;;;;;;5048552;28;20045;-40
2022/06/20 14:12:23;;;;;;;4.55;3.08;;;;;;;;;;5050132;28;20057;-47
2022/06/20 14:14:57;;;;;;;3.95;2.83;;;;;;;;;;5050036;28;20041;-44
2022/06/20 14:17:28;;;;;;;;;;;;;;;;;;5050489;28;20128;-46
2022/06/20 14:20:00;;;;;;;3.65;2.78;;;;;;;;;;5050035;28;19921;-54
2022/06/20 14:22:48;;;;;;;3.53;2.78;;;;;;;;;;5049638;28;20040;-54
2022/06/20 14:25:40;;;;;;;3.33;2.70;;;;;;;;;;5048651;28;20072;-53
2022/06/20 14:28:26;;;;;;;4.75;2.90;;;;;;;;;;5048516;28;20056;-52
2022/06/20 14:31:00;;;;;;;4.15;2.78;;;;;;;;;;5049346;28;20458;-42
2022/06/20 14:33:48;;;;;;;6.10;3.00;;;;;;;;;;5049798;28;20099;-49
2022/06/20 14:36:24;;;;;;;3.85;3.13;;;;;;;;;;5049743;28;20045;-53
2022/06/20 14:39:04;;;;;;;3.90;2.90;;;;;;;;;;5061446;28;20558;-47
2022/06/20 14:41:40;;;;;;;3.60;2.85;;;;;;;;;;5069984;28;20041;-48
2022/06/20 14:44:35;;;;;;;3.58;2.70;;;;;;;;;;5068506;28;20067;-47
2022/06/20 14:47:07;;;;;;;4.88;2.50;;;;;;;;;;5069780;28;20044;-49
2022/06/20 14:49:43;;;;;;;3.45;2.15;;;;;;;;;;5069302;28;20044;-53
2022/06/20 14:52:45;;;;;;;2.72;2.00;;;;;;;;;;5069686;28;20055;-45
2022/06/20 14:55:27;;;;;;;5.05;2.15;;;;;;;;;;5066437;28;20060;-43
2022/06/20 14:58:08;;;;;;;3.75;2.33;;;;;;;;;;5069448;28;20578;-53
2022/06/20 15:00:43;;;;;;;3.13;2.25;;;;;;;;;;5069630;28;20460;-54
2022/06/20 15:03:31;;;;;;;4.40;2.42;;;;;;;;;;5069722;28;20052;-53
2022/06/20 15:06:07;;;;;;;27.92;16.67;;;;;;;;;;5069420;28;20182;-50
2022/06/20 15:08:58;;;;;;;5.72;3.20;;;;;;;;;;5069565;28;20331;-52
2022/06/20 15:11:38;;;;;;;4.47;3.40;;;;;;;;;;5070860;28;20045;-46
2022/06/20 15:14:42;;;;;;;8.82;3.35;;;;;;;;;;5072907;28;20097;-51
2022/06/20 15:17:19;;;;;;;6.28;3.35;;;;;;;;;;5054943;28;20061;-52
2022/06/20 15:19:51;;;;;;;3.88;3.00;;;;;;;;;;5073092;28;20076;-40
2022/06/20 15:22:24;;;;;;;3.70;2.90;;;;;;;;;;5073082;28;20102;-40
2022/06/20 15:24:56;;;;;;;6.00;2.97;;;;;;;;;;5072993;28;20289;-42
2022/06/20 15:27:30;;;;;;;4.40;3.47;;;;;;;;;;5073031;28;20376;-44
2022/06/20 15:30:26;;;;;;;7.35;3.70;;;;;;;;;;5072829;28;20504;-41
2022/06/20 15:32:55;;;;;;;4.90;3.10;;;;;;;;;;5072845;28;20061;-50
2022/06/20 15:35:53;;;;;;;4.43;3.00;;;;;;;;;;5072580;28;20086;-53
2022/06/20 15:38:44;;;;;;;4.95;3.33;;;;;;;;;;5067653;28;20044;-45
2022/06/20 15:41:12;;;;;;;3.72;2.67;;;;;;;;;;5052659;28;20098;-53
2022/06/20 15:43:46;;;;;;;8.85;2.90;;;;;;;;;;5052426;28;20041;-52
2022/06/20 15:46:35;;;;;;;4.10;3.33;;;;;;;;;;5052505;28;20045;-47
2022/06/20 15:49:44;;;;;;;5.43;2.88;;;;;;;;;;5052525;28;20051;-50
2022/06/20 15:52:26;;;;;;;4.38;3.03;;;;;;;;;;5029973;28;20079;-51
2022/06/20 15:55:24;;;;;;;4.20;3.08;;;;;;;;;;5030229;28;20485;-48
2022/06/20 15:58:00;;;;;;;4.50;3.22;;;;;;;;;;5048213;28;20060;-43
2022/06/20 16:00:56;;;;;;;5.00;3.15;;;;;;;;;;5052220;28;20396;-46
2022/06/20 16:03:32;;;;;;;6.93;3.55;;;;;;;;;;5052250;28;20083;-48
2022/06/20 16:06:06;;;;;;;5.03;3.25;;;;;;;;;;5051973;28;20571;-47
2022/06/20 16:09:13;;;;;;;5.20;3.55;;;;;;;;;;5051821;28;20400;-46